sensor_id;sensor_type;location;lat;lon;timestamp;P1;durP1;ratioP1;P2;durP2;ratioP2
74293;SDS011;64044;59.904;10.738;2023-12-28T00:01:25;7.38;;;3.20;;
74293;SDS011;64044;59.904;10.738;2023-12-28T00:03:51;8.05;;;3.88;;
74293;SDS011;64044;59.904;10.738;2023-12-28T00:06:16;12.00;;;3.72;;
74293;SDS011;64044;59.904;10.738;2023-12-28T00:08:42;9.60;;;3.45;;
74293;SDS011;64044;59.904;10.738;2023-12-28T00:11:08;8.27;;;3.47;;
74293;SDS011;64044;59.904;10.738;2023-12-28T00:13:34;7.53;;;2.95;;
74293;SDS011;64044;59.904;10.738;2023-12-28T00:16:00;7.07;;;2.88;;
74293;SDS011;64044;59.904;10.738;2023-12-28T00:18:26;6.85;;;3.10;;
74293;SDS011;64044;59.904;10.738;2023-12-28T00:20:52;8.55;;;3.10;;
74293;SDS011;64044;59.904;10.738;2023-12-28T00:23:18;5.72;;;2.95;;
74293;SDS011;64044;59.904;10.738;2023-12-28T00:25:45;10.50;;;3.05;;
74293;SDS011;64044;59.904;10.738;2023-12-28T00:28:11;8.45;;;3.22;;
74293;SDS011;64044;59.904;10.738;2023-12-28T00:30:37;6.25;;;2.67;;
74293;SDS011;64044;59.904;10.738;2023-12-28T00:33:03;5.80;;;2.58;;
74293;SDS011;64044;59.904;10.738;2023-12-28T00:35:29;5.40;;;2.60;;
74293;SDS011;64044;59.904;10.738;2023-12-28T00:37:54;4.78;;;2.70;;
74293;SDS011;64044;59.904;10.738;2023-12-28T00:40:20;5.70;;;2.35;;
74293;SDS011;64044;59.904;10.738;2023-12-28T00:42:47;4.38;;;2.13;;
74293;SDS011;64044;59.904;10.738;2023-12-28T00:45:13;4.70;;;2.10;;
74293;SDS011;64044;59.904;10.738;2023-12-28T00:47:44;5.63;;;2.35;;
74293;SDS011;64044;59.904;10.738;2023-12-28T00:50:09;3.63;;;2.03;;
74293;SDS011;64044;59.904;10.738;2023-12-28T00:52:40;8.30;;;2.35;;
74293;SDS011;64044;59.904;10.738;2023-12-28T00:55:06;6.72;;;2.20;;
74293;SDS011;64044;59.904;10.738;2023-12-28T00:57:32;6.20;;;1.92;;
74293;SDS011;64044;59.904;10.738;2023-12-28T00:59:58;3.60;;;2.03;;
74293;SDS011;64044;59.904;10.738;2023-12-28T01:02:24;5.63;;;2.00;;
74293;SDS011;64044;59.904;10.738;2023-12-28T01:04:50;3.92;;;2.03;;
74293;SDS011;64044;59.904;10.738;2023-12-28T01:07:16;7.72;;;2.65;;
74293;SDS011;64044;59.904;10.738;2023-12-28T01:09:42;4.10;;;1.88;;
74293;SDS011;64044;59.904;10.738;2023-12-28T01:12:07;4.93;;;1.75;;
74293;SDS011;64044;59.904;10.738;2023-12-28T01:14:33;4.20;;;2.08;;
74293;SDS011;64044;59.904;10.738;2023-12-28T01:16:59;5.00;;;1.50;;
74293;SDS011;64044;59.904;10.738;2023-12-28T01:19:25;4.45;;;2.17;;
74293;SDS011;64044;59.904;10.738;2023-12-28T01:21:51;5.05;;;1.88;;
74293;SDS011;64044;59.904;10.738;2023-12-28T01:24:16;3.70;;;2.05;;
74293;SDS011;64044;59.904;10.738;2023-12-28T01:26:42;3.63;;;1.40;;
74293;SDS011;64044;59.904;10.738;2023-12-28T01:29:08;4.03;;;1.50;;
74293;SDS011;64044;59.904;10.738;2023-12-28T01:31:34;4.15;;;1.63;;
74293;SDS011;64044;59.904;10.738;2023-12-28T01:34:00;5.78;;;2.25;;
74293;SDS011;64044;59.904;10.738;2023-12-28T01:36:25;4.50;;;1.77;;
74293;SDS011;64044;59.904;10.738;2023-12-28T01:38:54;3.72;;;1.73;;
74293;SDS011;64044;59.904;10.738;2023-12-28T01:41:20;6.68;;;2.10;;
74293;SDS011;64044;59.904;10.738;2023-12-28T01:43:45;3.55;;;1.75;;
74293;SDS011;64044;59.904;10.738;2023-12-28T01:49:03;2.17;;;1.50;;
74293;SDS011;64044;59.904;10.738;2023-12-28T01:51:29;2.65;;;1.60;;
74293;SDS011;64044;59.904;10.738;2023-12-28T01:53:56;4.55;;;2.08;;
74293;SDS011;64044;59.904;10.738;2023-12-28T01:56:23;3.70;;;1.67;;
74293;SDS011;64044;59.904;10.738;2023-12-28T01:58:52;5.65;;;1.80;;
74293;SDS011;64044;59.904;10.738;2023-12-28T02:01:18;3.58;;;2.10;;
74293;SDS011;64044;59.904;10.738;2023-12-28T02:03:45;3.80;;;2.10;;
74293;SDS011;64044;59.904;10.738;2023-12-28T02:06:11;5.25;;;2.03;;
74293;SDS011;64044;59.904;10.738;2023-12-28T02:08:41;5.05;;;2.30;;
74293;SDS011;64044;59.904;10.738;2023-12-28T02:11:07;3.67;;;1.88;;
74293;SDS011;64044;59.904;10.738;2023-12-28T02:13:33;4.90;;;2.35;;
74293;SDS011;64044;59.904;10.738;2023-12-28T02:16:21;4.95;;;2.22;;
74293;SDS011;64044;59.904;10.738;2023-12-28T02:18:54;5.53;;;2.08;;
74293;SDS011;64044;59.904;10.738;2023-12-28T02:21:21;7.68;;;2.65;;
74293;SDS011;64044;59.904;10.738;2023-12-28T02:23:49;5.30;;;2.28;;
74293;SDS011;64044;59.904;10.738;2023-12-28T02:26:16;3.80;;;2.20;;
74293;SDS011;64044;59.904;10.738;2023-12-28T02:28:42;4.88;;;2.13;;
74293;SDS011;64044;59.904;10.738;2023-12-28T02:31:09;3.20;;;1.80;;
74293;SDS011;64044;59.904;10.738;2023-12-28T02:33:54;5.30;;;2.22;;
74293;SDS011;64044;59.904;10.738;2023-12-28T02:38:51;5.18;;;1.83;;
74293;SDS011;64044;59.904;10.738;2023-12-28T02:41:20;3.42;;;1.95;;
74293;SDS011;64044;59.904;10.738;2023-12-28T02:43:47;5.95;;;2.30;;
74293;SDS011;64044;59.904;10.738;2023-12-28T02:46:13;4.80;;;2.10;;
74293;SDS011;64044;59.904;10.738;2023-12-28T02:48:39;3.45;;;1.77;;
74293;SDS011;64044;59.904;10.738;2023-12-28T02:51:05;6.30;;;1.60;;
74293;SDS011;64044;59.904;10.738;2023-12-28T02:53:31;4.70;;;2.15;;
74293;SDS011;64044;59.904;10.738;2023-12-28T02:55:57;5.05;;;2.00;;
74293;SDS011;64044;59.904;10.738;2023-12-28T02:58:22;6.85;;;2.15;;
74293;SDS011;64044;59.904;10.738;2023-12-28T03:00:48;5.22;;;2.40;;
74293;SDS011;64044;59.904;10.738;2023-12-28T03:03:14;8.07;;;2.20;;
74293;SDS011;64044;59.904;10.738;2023-12-28T03:05:40;5.60;;;2.05;;
74293;SDS011;64044;59.904;10.738;2023-12-28T03:08:06;4.43;;;2.08;;
74293;SDS011;64044;59.904;10.738;2023-12-28T03:10:32;4.47;;;1.65;;
74293;SDS011;64044;59.904;10.738;2023-12-28T03:12:57;2.78;;;1.20;;
74293;SDS011;64044;59.904;10.738;2023-12-28T03:15:23;3.15;;;1.48;;
74293;SDS011;64044;59.904;10.738;2023-12-28T03:17:49;5.68;;;1.40;;
74293;SDS011;64044;59.904;10.738;2023-12-28T03:20:15;4.68;;;1.45;;
74293;SDS011;64044;59.904;10.738;2023-12-28T03:22:41;2.72;;;1.48;;
74293;SDS011;64044;59.904;10.738;2023-12-28T03:25:07;3.75;;;1.63;;
74293;SDS011;64044;59.904;10.738;2023-12-28T03:27:33;4.00;;;1.38;;
74293;SDS011;64044;59.904;10.738;2023-12-28T03:29:58;4.07;;;1.50;;
74293;SDS011;64044;59.904;10.738;2023-12-28T03:32:24;3.90;;;1.67;;
74293;SDS011;64044;59.904;10.738;2023-12-28T03:34:50;5.50;;;1.33;;
74293;SDS011;64044;59.904;10.738;2023-12-28T03:37:15;3.67;;;1.30;;
74293;SDS011;64044;59.904;10.738;2023-12-28T03:39:41;4.40;;;1.73;;
74293;SDS011;64044;59.904;10.738;2023-12-28T03:42:07;5.65;;;1.52;;
74293;SDS011;64044;59.904;10.738;2023-12-28T03:44:33;4.10;;;1.30;;
74293;SDS011;64044;59.904;10.738;2023-12-28T03:46:58;1.92;;;0.98;;
74293;SDS011;64044;59.904;10.738;2023-12-28T03:49:25;2.30;;;0.93;;
74293;SDS011;64044;59.904;10.738;2023-12-28T03:51:51;2.40;;;1.17;;
74293;SDS011;64044;59.904;10.738;2023-12-28T03:54:17;3.92;;;1.42;;
74293;SDS011;64044;59.904;10.738;2023-12-28T03:56:44;4.22;;;0.88;;
74293;SDS011;64044;59.904;10.738;2023-12-28T03:59:10;3.70;;;1.23;;
74293;SDS011;64044;59.904;10.738;2023-12-28T04:01:36;4.20;;;1.08;;
74293;SDS011;64044;59.904;10.738;2023-12-28T04:04:02;2.47;;;1.20;;
74293;SDS011;64044;59.904;10.738;2023-12-28T04:06:28;3.50;;;1.35;;
74293;SDS011;64044;59.904;10.738;2023-12-28T04:08:54;3.85;;;1.00;;
74293;SDS011;64044;59.904;10.738;2023-12-28T04:11:19;2.58;;;1.00;;
74293;SDS011;64044;59.904;10.738;2023-12-28T04:13:45;6.15;;;1.40;;
74293;SDS011;64044;59.904;10.738;2023-12-28T04:16:14;2.67;;;1.10;;
74293;SDS011;64044;59.904;10.738;2023-12-28T04:18:41;2.65;;;1.15;;
74293;SDS011;64044;59.904;10.738;2023-12-28T04:21:16;2.13;;;0.95;;
74293;SDS011;64044;59.904;10.738;2023-12-28T04:23:41;2.28;;;0.95;;
74293;SDS011;64044;59.904;10.738;2023-12-28T04:26:07;3.88;;;0.73;;
74293;SDS011;64044;59.904;10.738;2023-12-28T04:28:33;2.15;;;0.77;;
74293;SDS011;64044;59.904;10.738;2023-12-28T04:31:02;2.95;;;1.00;;
74293;SDS011;64044;59.904;10.738;2023-12-28T04:33:31;2.28;;;0.95;;
74293;SDS011;64044;59.904;10.738;2023-12-28T04:36:00;3.53;;;1.40;;
74293;SDS011;64044;59.904;10.738;2023-12-28T04:38:28;3.22;;;0.98;;
74293;SDS011;64044;59.904;10.738;2023-12-28T04:40:54;2.20;;;0.90;;
74293;SDS011;64044;59.904;10.738;2023-12-28T04:43:20;2.67;;;0.77;;
74293;SDS011;64044;59.904;10.738;2023-12-28T04:45:45;1.90;;;0.93;;
74293;SDS011;64044;59.904;10.738;2023-12-28T04:48:12;2.80;;;0.90;;
74293;SDS011;64044;59.904;10.738;2023-12-28T04:50:37;1.08;;;0.77;;
74293;SDS011;64044;59.904;10.738;2023-12-28T04:53:03;2.63;;;0.90;;
74293;SDS011;64044;59.904;10.738;2023-12-28T04:55:29;3.22;;;0.90;;
74293;SDS011;64044;59.904;10.738;2023-12-28T04:57:54;2.17;;;0.82;;
74293;SDS011;64044;59.904;10.738;2023-12-28T05:00:20;2.13;;;0.98;;
74293;SDS011;64044;59.904;10.738;2023-12-28T05:02:46;2.33;;;0.82;;
74293;SDS011;64044;59.904;10.738;2023-12-28T05:05:12;1.85;;;0.52;;
74293;SDS011;64044;59.904;10.738;2023-12-28T05:07:38;2.38;;;0.88;;
74293;SDS011;64044;59.904;10.738;2023-12-28T05:10:04;2.17;;;0.98;;
74293;SDS011;64044;59.904;10.738;2023-12-28T05:12:30;4.32;;;1.13;;
74293;SDS011;64044;59.904;10.738;2023-12-28T05:14:56;3.33;;;1.00;;
74293;SDS011;64044;59.904;10.738;2023-12-28T05:17:22;4.03;;;1.10;;
74293;SDS011;64044;59.904;10.738;2023-12-28T05:19:48;3.78;;;1.00;;
74293;SDS011;64044;59.904;10.738;2023-12-28T05:22:13;1.88;;;0.60;;
74293;SDS011;64044;59.904;10.738;2023-12-28T05:24:39;1.85;;;0.85;;
74293;SDS011;64044;59.904;10.738;2023-12-28T05:27:05;2.78;;;1.00;;
74293;SDS011;64044;59.904;10.738;2023-12-28T05:29:30;4.13;;;1.25;;
74293;SDS011;64044;59.904;10.738;2023-12-28T05:31:56;2.72;;;0.88;;
74293;SDS011;64044;59.904;10.738;2023-12-28T05:34:22;3.05;;;1.05;;
74293;SDS011;64044;59.904;10.738;2023-12-28T05:36:47;5.03;;;1.30;;
74293;SDS011;64044;59.904;10.738;2023-12-28T05:39:13;4.10;;;1.05;;
74293;SDS011;64044;59.904;10.738;2023-12-28T05:41:39;3.42;;;1.27;;
74293;SDS011;64044;59.904;10.738;2023-12-28T05:44:05;5.32;;;1.60;;
74293;SDS011;64044;59.904;10.738;2023-12-28T05:46:31;5.45;;;1.15;;
74293;SDS011;64044;59.904;10.738;2023-12-28T05:48:57;2.25;;;0.90;;
74293;SDS011;64044;59.904;10.738;2023-12-28T05:51:23;1.90;;;1.08;;
74293;SDS011;64044;59.904;10.738;2023-12-28T05:53:49;3.33;;;1.40;;
74293;SDS011;64044;59.904;10.738;2023-12-28T05:56:14;3.97;;;1.20;;
74293;SDS011;64044;59.904;10.738;2023-12-28T05:58:40;3.50;;;0.93;;
74293;SDS011;64044;59.904;10.738;2023-12-28T06:01:06;3.13;;;0.98;;
74293;SDS011;64044;59.904;10.738;2023-12-28T06:03:32;3.15;;;1.08;;
74293;SDS011;64044;59.904;10.738;2023-12-28T06:05:58;3.80;;;1.13;;
74293;SDS011;64044;59.904;10.738;2023-12-28T06:08:23;3.58;;;0.90;;
74293;SDS011;64044;59.904;10.738;2023-12-28T06:10:49;4.20;;;0.80;;
74293;SDS011;64044;59.904;10.738;2023-12-28T06:13:15;2.38;;;0.70;;
74293;SDS011;64044;59.904;10.738;2023-12-28T06:16:06;1.38;;;0.85;;
74293;SDS011;64044;59.904;10.738;2023-12-28T06:18:31;2.45;;;0.88;;
74293;SDS011;64044;59.904;10.738;2023-12-28T06:20:57;4.00;;;0.95;;
74293;SDS011;64044;59.904;10.738;2023-12-28T06:23:23;1.88;;;0.80;;
74293;SDS011;64044;59.904;10.738;2023-12-28T06:25:49;1.98;;;0.90;;
74293;SDS011;64044;59.904;10.738;2023-12-28T06:28:14;2.80;;;0.80;;
74293;SDS011;64044;59.904;10.738;2023-12-28T06:30:40;2.42;;;0.60;;
74293;SDS011;64044;59.904;10.738;2023-12-28T06:33:06;3.67;;;0.95;;
74293;SDS011;64044;59.904;10.738;2023-12-28T06:35:32;1.73;;;0.70;;
74293;SDS011;64044;59.904;10.738;2023-12-28T06:37:57;3.20;;;0.77;;
74293;SDS011;64044;59.904;10.738;2023-12-28T06:40:23;3.78;;;0.77;;
74293;SDS011;64044;59.904;10.738;2023-12-28T06:42:49;2.72;;;0.55;;
74293;SDS011;64044;59.904;10.738;2023-12-28T06:45:15;2.20;;;0.80;;
74293;SDS011;64044;59.904;10.738;2023-12-28T06:47:40;2.33;;;0.85;;
74293;SDS011;64044;59.904;10.738;2023-12-28T06:50:06;1.77;;;0.70;;
74293;SDS011;64044;59.904;10.738;2023-12-28T06:52:32;3.45;;;1.17;;
74293;SDS011;64044;59.904;10.738;2023-12-28T06:54:58;1.25;;;0.88;;
74293;SDS011;64044;59.904;10.738;2023-12-28T06:57:24;2.03;;;0.60;;
74293;SDS011;64044;59.904;10.738;2023-12-28T06:59:50;0.60;;;0.60;;
74293;SDS011;64044;59.904;10.738;2023-12-28T07:02:15;0.82;;;0.52;;
74293;SDS011;64044;59.904;10.738;2023-12-28T07:04:41;1.65;;;0.63;;
74293;SDS011;64044;59.904;10.738;2023-12-28T07:07:07;1.23;;;0.60;;
74293;SDS011;64044;59.904;10.738;2023-12-28T07:09:32;3.70;;;0.98;;
74293;SDS011;64044;59.904;10.738;2023-12-28T07:11:58;3.58;;;1.58;;
74293;SDS011;64044;59.904;10.738;2023-12-28T07:14:24;2.92;;;0.70;;
74293;SDS011;64044;59.904;10.738;2023-12-28T07:16:50;0.95;;;0.50;;
74293;SDS011;64044;59.904;10.738;2023-12-28T07:19:16;1.67;;;0.75;;
74293;SDS011;64044;59.904;10.738;2023-12-28T07:21:41;1.17;;;0.80;;
74293;SDS011;64044;59.904;10.738;2023-12-28T07:24:07;1.40;;;0.75;;
74293;SDS011;64044;59.904;10.738;2023-12-28T07:26:33;0.80;;;0.45;;
74293;SDS011;64044;59.904;10.738;2023-12-28T07:28:59;1.52;;;0.65;;
74293;SDS011;64044;59.904;10.738;2023-12-28T07:31:25;2.30;;;0.75;;
74293;SDS011;64044;59.904;10.738;2023-12-28T07:33:51;2.78;;;0.85;;
74293;SDS011;64044;59.904;10.738;2023-12-28T07:36:17;2.78;;;0.70;;
74293;SDS011;64044;59.904;10.738;2023-12-28T07:38:43;1.98;;;1.00;;
74293;SDS011;64044;59.904;10.738;2023-12-28T07:41:09;1.63;;;0.50;;
74293;SDS011;64044;59.904;10.738;2023-12-28T07:43:35;0.75;;;0.50;;
74293;SDS011;64044;59.904;10.738;2023-12-28T07:46:01;1.75;;;0.70;;
74293;SDS011;64044;59.904;10.738;2023-12-28T07:48:27;1.80;;;0.80;;
74293;SDS011;64044;59.904;10.738;2023-12-28T07:50:55;2.60;;;0.80;;
74293;SDS011;64044;59.904;10.738;2023-12-28T07:53:28;1.45;;;0.90;;
74293;SDS011;64044;59.904;10.738;2023-12-28T07:55:54;3.67;;;1.08;;
74293;SDS011;64044;59.904;10.738;2023-12-28T07:58:21;2.17;;;1.00;;
74293;SDS011;64044;59.904;10.738;2023-12-28T08:00:47;2.83;;;0.90;;
74293;SDS011;64044;59.904;10.738;2023-12-28T08:03:13;1.70;;;0.77;;
74293;SDS011;64044;59.904;10.738;2023-12-28T08:05:40;1.08;;;0.80;;
74293;SDS011;64044;59.904;10.738;2023-12-28T08:08:06;2.17;;;0.82;;
74293;SDS011;64044;59.904;10.738;2023-12-28T08:10:32;2.28;;;0.98;;
74293;SDS011;64044;59.904;10.738;2023-12-28T08:12:58;1.50;;;0.70;;
74293;SDS011;64044;59.904;10.738;2023-12-28T08:15:24;1.75;;;0.80;;
74293;SDS011;64044;59.904;10.738;2023-12-28T08:17:50;1.17;;;0.77;;
74293;SDS011;64044;59.904;10.738;2023-12-28T08:20:15;3.00;;;1.38;;
74293;SDS011;64044;59.904;10.738;2023-12-28T08:22:41;1.85;;;0.63;;
74293;SDS011;64044;59.904;10.738;2023-12-28T08:25:07;2.55;;;0.68;;
74293;SDS011;64044;59.904;10.738;2023-12-28T08:27:33;1.25;;;1.10;;
74293;SDS011;64044;59.904;10.738;2023-12-28T08:29:59;1.48;;;0.90;;
74293;SDS011;64044;59.904;10.738;2023-12-28T08:32:24;1.67;;;0.82;;
74293;SDS011;64044;59.904;10.738;2023-12-28T08:34:50;2.67;;;0.70;;
74293;SDS011;64044;59.904;10.738;2023-12-28T08:37:16;1.45;;;0.68;;
74293;SDS011;64044;59.904;10.738;2023-12-28T08:39:41;2.05;;;1.00;;
74293;SDS011;64044;59.904;10.738;2023-12-28T08:42:07;0.85;;;0.60;;
74293;SDS011;64044;59.904;10.738;2023-12-28T08:44:33;5.10;;;1.10;;
74293;SDS011;64044;59.904;10.738;2023-12-28T08:47:00;1.48;;;1.00;;
74293;SDS011;64044;59.904;10.738;2023-12-28T08:49:27;5.53;;;1.67;;
74293;SDS011;64044;59.904;10.738;2023-12-28T08:51:54;2.20;;;1.30;;
74293;SDS011;64044;59.904;10.738;2023-12-28T08:54:20;1.85;;;1.15;;
74293;SDS011;64044;59.904;10.738;2023-12-28T08:56:45;2.85;;;1.38;;
74293;SDS011;64044;59.904;10.738;2023-12-28T08:59:13;1.33;;;0.80;;
74293;SDS011;64044;59.904;10.738;2023-12-28T09:01:39;0.82;;;0.80;;
74293;SDS011;64044;59.904;10.738;2023-12-28T09:04:04;2.33;;;0.68;;
74293;SDS011;64044;59.904;10.738;2023-12-28T09:06:30;3.60;;;0.88;;
74293;SDS011;64044;59.904;10.738;2023-12-28T09:08:56;2.65;;;0.98;;
74293;SDS011;64044;59.904;10.738;2023-12-28T09:11:23;1.10;;;0.73;;
74293;SDS011;64044;59.904;10.738;2023-12-28T09:13:49;2.08;;;1.00;;
74293;SDS011;64044;59.904;10.738;2023-12-28T09:16:14;4.47;;;0.90;;
74293;SDS011;64044;59.904;10.738;2023-12-28T09:18:40;2.28;;;0.90;;
74293;SDS011;64044;59.904;10.738;2023-12-28T09:21:07;3.42;;;1.00;;
74293;SDS011;64044;59.904;10.738;2023-12-28T09:23:34;2.10;;;0.93;;
74293;SDS011;64044;59.904;10.738;2023-12-28T09:26:01;4.30;;;1.00;;
74293;SDS011;64044;59.904;10.738;2023-12-28T09:28:31;1.98;;;0.90;;
74293;SDS011;64044;59.904;10.738;2023-12-28T09:30:57;3.25;;;1.00;;
74293;SDS011;64044;59.904;10.738;2023-12-28T09:33:23;1.10;;;0.73;;
74293;SDS011;64044;59.904;10.738;2023-12-28T09:35:49;0.90;;;0.70;;
74293;SDS011;64044;59.904;10.738;2023-12-28T09:38:15;3.78;;;1.30;;
74293;SDS011;64044;59.904;10.738;2023-12-28T09:40:41;1.15;;;0.60;;
74293;SDS011;64044;59.904;10.738;2023-12-28T09:46:06;6.00;;;2.03;;
74293;SDS011;64044;59.904;10.738;2023-12-28T09:48:36;3.28;;;0.90;;
74293;SDS011;64044;59.904;10.738;2023-12-28T09:51:06;1.67;;;0.82;;
74293;SDS011;64044;59.904;10.738;2023-12-28T09:53:31;2.92;;;1.00;;
74293;SDS011;64044;59.904;10.738;2023-12-28T09:55:57;2.25;;;0.70;;
74293;SDS011;64044;59.904;10.738;2023-12-28T09:58:24;1.65;;;0.90;;
74293;SDS011;64044;59.904;10.738;2023-12-28T10:00:53;0.98;;;0.73;;
74293;SDS011;64044;59.904;10.738;2023-12-28T10:03:19;4.15;;;0.82;;
74293;SDS011;64044;59.904;10.738;2023-12-28T10:05:45;2.55;;;1.00;;
74293;SDS011;64044;59.904;10.738;2023-12-28T10:08:11;1.35;;;0.70;;
74293;SDS011;64044;59.904;10.738;2023-12-28T10:10:38;3.83;;;0.70;;
74293;SDS011;64044;59.904;10.738;2023-12-28T10:13:06;0.90;;;0.73;;
74293;SDS011;64044;59.904;10.738;2023-12-28T10:15:38;1.95;;;0.90;;
74293;SDS011;64044;59.904;10.738;2023-12-28T10:18:04;3.13;;;0.80;;
74293;SDS011;64044;59.904;10.738;2023-12-28T10:20:31;2.60;;;0.90;;
74293;SDS011;64044;59.904;10.738;2023-12-28T10:23:00;1.85;;;0.40;;
74293;SDS011;64044;59.904;10.738;2023-12-28T10:25:30;1.52;;;0.70;;
74293;SDS011;64044;59.904;10.738;2023-12-28T10:27:57;1.90;;;0.77;;
74293;SDS011;64044;59.904;10.738;2023-12-28T10:30:28;1.40;;;0.80;;
74293;SDS011;64044;59.904;10.738;2023-12-28T10:32:55;2.80;;;0.80;;
74293;SDS011;64044;59.904;10.738;2023-12-28T10:35:20;2.63;;;1.17;;
74293;SDS011;64044;59.904;10.738;2023-12-28T10:37:46;2.20;;;1.00;;
74293;SDS011;64044;59.904;10.738;2023-12-28T10:40:18;2.10;;;0.88;;
74293;SDS011;64044;59.904;10.738;2023-12-28T10:42:49;3.13;;;1.02;;
74293;SDS011;64044;59.904;10.738;2023-12-28T10:45:33;3.83;;;1.00;;
74293;SDS011;64044;59.904;10.738;2023-12-28T10:53:22;1.38;;;1.02;;
74293;SDS011;64044;59.904;10.738;2023-12-28T11:01:17;2.05;;;0.80;;
74293;SDS011;64044;59.904;10.738;2023-12-28T11:03:57;2.22;;;0.70;;
74293;SDS011;64044;59.904;10.738;2023-12-28T11:06:29;1.38;;;0.98;;
74293;SDS011;64044;59.904;10.738;2023-12-28T11:08:56;2.15;;;0.80;;
74293;SDS011;64044;59.904;10.738;2023-12-28T11:11:24;2.97;;;1.08;;
74293;SDS011;64044;59.904;10.738;2023-12-28T11:13:51;2.15;;;1.08;;
74293;SDS011;64044;59.904;10.738;2023-12-28T11:16:20;1.85;;;0.90;;
74293;SDS011;64044;59.904;10.738;2023-12-28T11:18:47;2.38;;;1.00;;
74293;SDS011;64044;59.904;10.738;2023-12-28T11:21:15;1.40;;;0.73;;
74293;SDS011;64044;59.904;10.738;2023-12-28T11:23:42;0.98;;;0.70;;
74293;SDS011;64044;59.904;10.738;2023-12-28T11:26:21;1.67;;;1.10;;
74293;SDS011;64044;59.904;10.738;2023-12-28T11:28:59;4.10;;;1.00;;
74293;SDS011;64044;59.904;10.738;2023-12-28T11:31:26;2.47;;;0.85;;
74293;SDS011;64044;59.904;10.738;2023-12-28T11:33:52;1.65;;;0.80;;
74293;SDS011;64044;59.904;10.738;2023-12-28T11:36:40;2.55;;;1.00;;
74293;SDS011;64044;59.904;10.738;2023-12-28T11:39:08;1.80;;;1.00;;
74293;SDS011;64044;59.904;10.738;2023-12-28T11:41:35;1.35;;;0.70;;
74293;SDS011;64044;59.904;10.738;2023-12-28T11:44:05;1.73;;;0.90;;
74293;SDS011;64044;59.904;10.738;2023-12-28T11:46:31;2.00;;;0.95;;
74293;SDS011;64044;59.904;10.738;2023-12-28T11:49:04;1.73;;;0.95;;
74293;SDS011;64044;59.904;10.738;2023-12-28T11:51:34;2.67;;;1.10;;
74293;SDS011;64044;59.904;10.738;2023-12-28T11:54:02;1.50;;;0.80;;
74293;SDS011;64044;59.904;10.738;2023-12-28T11:56:29;2.42;;;1.20;;
74293;SDS011;64044;59.904;10.738;2023-12-28T11:58:55;1.15;;;0.75;;
74293;SDS011;64044;59.904;10.738;2023-12-28T12:01:21;1.58;;;0.90;;
74293;SDS011;64044;59.904;10.738;2023-12-28T12:03:47;2.72;;;0.90;;
74293;SDS011;64044;59.904;10.738;2023-12-28T12:06:14;4.13;;;1.20;;
74293;SDS011;64044;59.904;10.738;2023-12-28T12:08:40;1.98;;;1.23;;
74293;SDS011;64044;59.904;10.738;2023-12-28T12:11:06;1.25;;;0.70;;
74293;SDS011;64044;59.904;10.738;2023-12-28T12:13:32;1.65;;;0.80;;
74293;SDS011;64044;59.904;10.738;2023-12-28T12:15:57;2.67;;;0.88;;
74293;SDS011;64044;59.904;10.738;2023-12-28T12:18:24;3.88;;;1.10;;
74293;SDS011;64044;59.904;10.738;2023-12-28T12:20:51;1.23;;;0.65;;
74293;SDS011;64044;59.904;10.738;2023-12-28T12:23:17;2.10;;;0.68;;
74293;SDS011;64044;59.904;10.738;2023-12-28T12:25:42;2.25;;;0.80;;
74293;SDS011;64044;59.904;10.738;2023-12-28T12:31:02;2.63;;;0.95;;
74293;SDS011;64044;59.904;10.738;2023-12-28T12:33:29;2.05;;;0.88;;
74293;SDS011;64044;59.904;10.738;2023-12-28T12:35:56;1.45;;;0.63;;
74293;SDS011;64044;59.904;10.738;2023-12-28T12:38:22;1.13;;;0.70;;
74293;SDS011;64044;59.904;10.738;2023-12-28T12:40:50;3.90;;;0.80;;
74293;SDS011;64044;59.904;10.738;2023-12-28T12:43:16;2.80;;;0.82;;
74293;SDS011;64044;59.904;10.738;2023-12-28T12:45:44;2.08;;;0.73;;
74293;SDS011;64044;59.904;10.738;2023-12-28T12:48:11;3.15;;;1.20;;
74293;SDS011;64044;59.904;10.738;2023-12-28T12:50:37;3.42;;;1.00;;
74293;SDS011;64044;59.904;10.738;2023-12-28T12:53:05;3.38;;;1.38;;
74293;SDS011;64044;59.904;10.738;2023-12-28T12:55:31;1.55;;;0.73;;
74293;SDS011;64044;59.904;10.738;2023-12-28T12:57:57;1.80;;;0.90;;
74293;SDS011;64044;59.904;10.738;2023-12-28T13:00:23;2.03;;;1.30;;
74293;SDS011;64044;59.904;10.738;2023-12-28T13:02:49;2.90;;;1.13;;
74293;SDS011;64044;59.904;10.738;2023-12-28T13:05:20;2.00;;;1.40;;
74293;SDS011;64044;59.904;10.738;2023-12-28T13:07:46;2.03;;;1.10;;
74293;SDS011;64044;59.904;10.738;2023-12-28T13:10:12;3.83;;;1.10;;
74293;SDS011;64044;59.904;10.738;2023-12-28T13:12:38;1.95;;;0.75;;
74293;SDS011;64044;59.904;10.738;2023-12-28T13:15:04;1.33;;;0.98;;
74293;SDS011;64044;59.904;10.738;2023-12-28T13:17:31;1.40;;;0.70;;
74293;SDS011;64044;59.904;10.738;2023-12-28T13:19:57;3.90;;;1.08;;
74293;SDS011;64044;59.904;10.738;2023-12-28T13:22:22;2.65;;;0.82;;
74293;SDS011;64044;59.904;10.738;2023-12-28T13:24:48;1.63;;;0.90;;
74293;SDS011;64044;59.904;10.738;2023-12-28T13:27:14;2.47;;;1.20;;
74293;SDS011;64044;59.904;10.738;2023-12-28T13:29:40;2.28;;;1.00;;
74293;SDS011;64044;59.904;10.738;2023-12-28T13:32:05;1.50;;;1.05;;
74293;SDS011;64044;59.904;10.738;2023-12-28T13:34:31;14.95;;;1.60;;
74293;SDS011;64044;59.904;10.738;2023-12-28T13:36:57;5.35;;;1.60;;
74293;SDS011;64044;59.904;10.738;2023-12-28T13:39:24;2.05;;;0.80;;
74293;SDS011;64044;59.904;10.738;2023-12-28T13:41:52;3.28;;;0.88;;
74293;SDS011;64044;59.904;10.738;2023-12-28T13:44:18;1.15;;;0.60;;
74293;SDS011;64044;59.904;10.738;2023-12-28T13:46:43;1.85;;;0.90;;
74293;SDS011;64044;59.904;10.738;2023-12-28T13:49:09;2.45;;;0.93;;
74293;SDS011;64044;59.904;10.738;2023-12-28T13:51:35;1.85;;;0.85;;
74293;SDS011;64044;59.904;10.738;2023-12-28T13:54:01;2.00;;;0.75;;
74293;SDS011;64044;59.904;10.738;2023-12-28T13:56:27;1.67;;;0.77;;
74293;SDS011;64044;59.904;10.738;2023-12-28T13:58:53;0.73;;;0.65;;
74293;SDS011;64044;59.904;10.738;2023-12-28T14:01:19;1.98;;;0.95;;
74293;SDS011;64044;59.904;10.738;2023-12-28T14:03:45;1.92;;;0.98;;
74293;SDS011;64044;59.904;10.738;2023-12-28T14:06:13;1.38;;;0.82;;
74293;SDS011;64044;59.904;10.738;2023-12-28T14:08:39;3.22;;;1.13;;
74293;SDS011;64044;59.904;10.738;2023-12-28T14:11:04;4.13;;;1.20;;
74293;SDS011;64044;59.904;10.738;2023-12-28T14:13:30;1.67;;;0.88;;
74293;SDS011;64044;59.904;10.738;2023-12-28T14:15:56;2.75;;;0.90;;
74293;SDS011;64044;59.904;10.738;2023-12-28T14:18:22;3.22;;;1.25;;
74293;SDS011;64044;59.904;10.738;2023-12-28T14:20:47;1.30;;;1.00;;
74293;SDS011;64044;59.904;10.738;2023-12-28T14:23:13;3.15;;;1.20;;
74293;SDS011;64044;59.904;10.738;2023-12-28T14:25:39;2.63;;;1.10;;
74293;SDS011;64044;59.904;10.738;2023-12-28T14:28:06;2.40;;;0.80;;
74293;SDS011;64044;59.904;10.738;2023-12-28T14:30:32;1.50;;;0.68;;
74293;SDS011;64044;59.904;10.738;2023-12-28T14:32:58;2.05;;;0.90;;
74293;SDS011;64044;59.904;10.738;2023-12-28T14:35:24;1.10;;;0.52;;
74293;SDS011;64044;59.904;10.738;2023-12-28T14:37:50;3.85;;;1.08;;
74293;SDS011;64044;59.904;10.738;2023-12-28T14:40:16;1.77;;;0.80;;
74293;SDS011;64044;59.904;10.738;2023-12-28T14:42:41;2.20;;;1.13;;
74293;SDS011;64044;59.904;10.738;2023-12-28T14:45:07;2.13;;;1.13;;
74293;SDS011;64044;59.904;10.738;2023-12-28T14:47:33;1.80;;;1.13;;
74293;SDS011;64044;59.904;10.738;2023-12-28T14:50:00;1.58;;;0.82;;
74293;SDS011;64044;59.904;10.738;2023-12-28T14:52:27;1.95;;;1.23;;